This is the latest recevied weather packets stored in our database for station/object W5HKR. If no packets are shown the sender has not sent any weather packets the latest 10 day(s).
| Time | Temp. | Humidity | Pressure | Rain* | Wind** | Luminosity | Snow |
|---|---|---|---|---|---|---|---|
| 1777960318 | 18.33° C | 91% | 990.6 hPa | 0 mm | - | - | - |
| 1777959807 | 21.11° C | 88% | 981.5 hPa | 0 mm | - | - | - |
| 1777959507 | 21.11° C | 88% | 981.7 hPa | 0 mm | - | - | - |
| 1777959238 | 18.33° C | 91% | 990.6 hPa | 0 mm | - | - | - |
| 1777959207 | 21.11° C | 87% | 981.8 hPa | 0 mm | - | - | - |
| 1777958907 | 21.11° C | 87% | 981.7 hPa | 0 mm | - | - | - |
| 1777958608 | 18.33° C | 91% | 990.6 hPa | 0 mm | - | - | - |
| 1777958306 | 21.11° C | 86% | 981.7 hPa | 0 mm | - | - | - |
| 1777958159 | 18.33° C | 91% | 990.6 hPa | 0 mm | - | - | - |
| 1777958009 | 18.33° C | 91% | 990.6 hPa | 0 mm | - | - | - |
| 1777957407 | 18.33° C | 91% | 990.6 hPa | 0 mm | - | - | - |
| 1777957109 | 21.67° C | 86% | 981.7 hPa | 0 mm | - | - | - |
| 1777957077 | 21.67° C | 86% | 981.7 hPa | 0 mm | - | - | - |
| 1777956808 | 21.67° C | 85% | 981.3 hPa | 0 mm | - | - | - |
| 1777956507 | 18.33° C | 91% | 990.6 hPa | 0 mm | - | - | - |
| 1777956208 | 18.33° C | 91% | 990.6 hPa | 0 mm | - | - | - |
| 1777955997 | 21.67° C | 85% | 981.8 hPa | 0 mm | - | - | - |
| 1777955907 | 18.33° C | 91% | 990.6 hPa | 0 mm | - | - | - |
| 1777955607 | 21.67° C | 85% | 982.1 hPa | 0 mm | - | - | - |
| 1777955307 | 18.33° C | 91% | 990.6 hPa | 0 mm | - | - | - |
| 1777955008 | 18.33° C | 91% | 990.6 hPa | 0 mm | - | - | - |
| 1777954919 | 18.33° C | 91% | 990.6 hPa | 0 mm | - | - | - |
| 1777954707 | 22.22° C | 84% | 982.1 hPa | 0 mm | - | - | - |
| 1777954409 | 22.22° C | 84% | 982.1 hPa | 0 mm | - | - | - |
| 1777954108 | 18.33° C | 91% | 990.6 hPa | 0 mm | - | - | - |
* Rain latest hour (hover to see other rain measurements)
** Current wind speed in m/s (hover to see current wind gust speed)